Time;durP1;ratioP1;P1;durP2;ratioP2;P2;SDS_P1;SDS_P2;PMS_P1;PMS_P2;Temp;Humidity;BMP_temperature;BMP_pressure;BME280_temperature;BME280_humidity;BME280_pressure;Samples;Min_cycle;Max_cycle;Signal;HPM_P1;HPM_P2
2023/06/13 00:01:03;;;;;;;32.83;19.70;;;18.70;32.80;;;;;;5095612;28;20840;-67
2023/06/13 00:03:33;;;;;;;3.97;3.63;;;18.70;32.30;;;;;;5095517;28;20782;-66
2023/06/13 00:06:01;;;;;;;3.70;3.20;;;18.70;32.50;;;;;;5096117;28;20469;-66
2023/06/13 00:08:31;;;;;;;6.20;3.20;;;18.60;32.70;;;;;;5095107;28;20494;-66
2023/06/13 00:10:59;;;;;;;4.33;2.90;;;18.60;32.90;;;;;;5095637;28;20453;-66
2023/06/13 00:13:26;;;;;;;5.13;2.97;;;18.50;33.20;;;;;;5095148;28;20810;-66
2023/06/13 00:15:54;;;;;;;15.30;13.20;;;18.50;33.40;;;;;;5095269;28;20509;-65
2023/06/13 00:18:23;;;;;;;3.07;2.87;;;18.40;33.50;;;;;;5095006;28;20469;-65
2023/06/13 00:20:54;;;;;;;3.20;3.00;;;18.40;33.90;;;;;;5095113;28;20960;-66
2023/06/13 00:23:22;;;;;;;5.30;3.20;;;18.30;34.00;;;;;;5095559;28;20452;-66
2023/06/13 00:25:49;;;;;;;3.70;3.40;;;18.30;34.30;;;;;;5095009;28;21000;-66
2023/06/13 00:28:16;;;;;;;4.80;3.60;;;18.20;34.40;;;;;;5095065;28;20552;-66
2023/06/13 00:30:43;;;;;;;7.53;3.40;;;18.20;34.80;;;;;;5095493;28;20540;-66
2023/06/13 00:33:10;;;;;;;5.63;3.53;;;18.20;34.90;;;;;;5095193;28;20457;-66
2023/06/13 00:35:37;;;;;;;3.20;2.80;;;18.10;35.10;;;;;;5095024;28;20534;-66
2023/06/13 00:38:06;;;;;;;6.03;3.17;;;18.10;35.40;;;;;;5094663;28;20944;-66
2023/06/13 00:40:33;;;;;;;4.20;3.37;;;18.10;35.60;;;;;;5095028;28;20781;-66
2023/06/13 00:43:00;;;;;;;3.30;3.00;;;18.00;35.60;;;;;;5095014;28;20457;-66
2023/06/13 00:45:29;;;;;;;2.93;2.73;;;18.10;36.00;;;;;;5094898;28;20449;-66
2023/06/13 00:47:58;;;;;;;4.83;3.50;;;18.10;36.20;;;;;;5094869;28;20463;-66
2023/06/13 00:50:28;;;;;;;3.80;2.90;;;18.00;36.50;;;;;;5094550;28;20462;-66
2023/06/13 00:52:55;;;;;;;3.57;3.27;;;18.00;36.60;;;;;;5094099;28;20910;-66
2023/06/13 00:55:25;;;;;;;4.00;3.60;;;18.00;36.70;;;;;;5094717;28;20804;-66
2023/06/13 00:57:55;;;;;;;3.87;3.30;;;17.90;36.80;;;;;;5094751;28;20472;-66
2023/06/13 01:00:25;;;;;;;3.40;2.90;;;17.90;36.90;;;;;;5094666;28;20464;-66
2023/06/13 01:02:57;;;;;;;6.47;3.33;;;17.90;37.10;;;;;;5094949;28;20476;-66
2023/06/13 01:05:25;;;;;;;6.70;2.70;;;17.80;37.10;;;;;;5094942;28;20434;-66
2023/06/13 01:07:57;;;;;;;4.83;2.80;;;17.80;37.30;;;;;;5094317;28;20560;-66
2023/06/13 01:10:26;;;;;;;2.93;2.73;;;17.70;37.50;;;;;;5094849;28;20442;-66
2023/06/13 01:13:01;;;;;;;3.00;2.70;;;17.70;37.70;;;;;;5094454;28;20487;-66
2023/06/13 01:15:32;;;;;;;5.30;3.37;;;17.60;37.90;;;;;;5094190;28;20460;-66
2023/06/13 01:18:03;;;;;;;3.60;2.93;;;17.60;38.40;;;;;;5094384;28;20997;-66
2023/06/13 01:20:31;;;;;;;3.33;3.03;;;17.50;38.80;;;;;;5094833;28;20441;-66
2023/06/13 01:23:17;;;;;;;5.40;3.70;;;17.40;39.10;;;;;;5095120;28;20908;-66
2023/06/13 01:25:59;;;;;;;5.87;2.87;;;17.40;39.40;;;;;;5094596;28;20470;-66
2023/06/13 01:28:28;;;;;;;3.70;3.37;;;17.30;39.70;;;;;;5094209;28;20448;-66
2023/06/13 01:30:57;;;;;;;4.70;3.30;;;17.30;40.10;;;;;;5094112;28;20453;-66
2023/06/13 01:33:24;;;;;;;3.27;3.00;;;17.20;41.10;;;;;;5094134;28;20940;-66
2023/06/13 01:35:51;;;;;;;3.60;2.93;;;17.20;40.90;;;;;;5094389;28;20477;-66
2023/06/13 01:38:19;;;;;;;2.70;2.50;;;17.20;41.40;;;;;;5094777;28;20504;-66
2023/06/13 01:40:46;;;;;;;5.13;3.00;;;17.10;41.80;;;;;;5094065;28;20458;-65
2023/06/13 01:43:12;;;;;;;4.03;3.60;;;17.00;42.10;;;;;;5094215;28;20544;-66
2023/06/13 01:45:41;;;;;;;4.27;3.60;;;17.00;42.70;;;;;;5094140;28;20453;-66
2023/06/13 01:48:15;;;;;;;4.03;3.50;;;16.90;43.10;;;;;;5094034;28;20453;-66
2023/06/13 01:50:49;;;;;;;3.40;3.10;;;16.90;43.90;;;;;;5094342;28;20460;-66
2023/06/13 01:53:24;;;;;;;4.80;3.27;;;16.80;44.50;;;;;;5094223;28;20442;-66
2023/06/13 01:55:56;;;;;;;6.23;3.40;;;16.80;44.90;;;;;;5094160;28;20804;-66
2023/06/13 01:58:27;;;;;;;4.47;3.20;;;16.80;46.10;;;;;;5094056;28;20474;-66
2023/06/13 02:00:56;;;;;;;5.37;2.87;;;16.70;45.90;;;;;;5093941;28;20438;-66
2023/06/13 02:03:24;;;;;;;3.40;3.10;;;16.70;46.60;;;;;;5096136;28;20556;-66
2023/06/13 02:05:51;;;;;;;4.17;3.27;;;16.60;47.20;;;;;;5097653;28;20445;-66
2023/06/13 02:08:18;;;;;;;3.40;3.03;;;16.60;47.80;;;;;;5097807;28;20864;-66
2023/06/13 02:10:46;;;;;;;3.40;3.10;;;16.60;48.30;;;;;;5097415;28;20544;-66
2023/06/13 02:13:13;;;;;;;5.20;3.23;;;16.60;48.90;;;;;;5097373;28;20516;-66
2023/06/13 02:15:40;;;;;;;3.57;3.27;;;16.60;49.50;;;;;;5097129;28;20487;-66
2023/06/13 02:18:09;;;;;;;3.00;2.80;;;16.50;50.00;;;;;;5097497;28;20453;-66
2023/06/13 02:20:35;;;;;;;4.47;2.70;;;16.50;50.50;;;;;;5097565;28;20794;-66
2023/06/13 02:23:03;;;;;;;7.83;3.50;;;16.50;51.30;;;;;;5097388;28;20809;-66
2023/06/13 02:25:31;;;;;;;5.50;3.60;;;16.50;51.80;;;;;;5097376;28;20506;-66
2023/06/13 02:27:57;;;;;;;3.90;3.30;;;16.40;52.40;;;;;;5097152;28;20859;-66
2023/06/13 02:30:24;;;;;;;3.50;3.17;;;16.40;53.00;;;;;;5097479;28;20457;-66
2023/06/13 02:32:52;;;;;;;4.50;3.43;;;16.40;53.70;;;;;;5097200;28;20531;-66
2023/06/13 02:35:23;;;;;;;3.80;3.20;;;16.40;54.40;;;;;;5096739;28;20491;-66
2023/06/13 02:37:53;;;;;;;5.40;3.03;;;16.30;54.80;;;;;;5097272;28;20931;-66
2023/06/13 02:40:20;;;;;;;4.40;3.27;;;16.30;55.50;;;;;;5097579;28;20776;-66
2023/06/13 02:42:48;;;;;;;5.00;3.70;;;16.30;56.20;;;;;;5097348;28;20540;-66
2023/06/13 02:45:15;;;;;;;4.60;3.67;;;16.30;56.90;;;;;;5096616;28;20457;-66
2023/06/13 02:47:42;;;;;;;6.70;3.43;;;16.20;57.50;;;;;;5096962;28;20902;-66
2023/06/13 02:50:10;;;;;;;3.47;3.17;;;16.20;58.30;;;;;;5097041;28;20457;-65
2023/06/13 02:52:39;;;;;;;7.97;3.53;;;16.20;59.00;;;;;;5096869;28;20468;-66
2023/06/13 02:55:08;;;;;;;5.63;4.63;;;16.20;59.70;;;;;;5096468;28;20995;-66
2023/06/13 02:57:37;;;;;;;4.20;3.63;;;16.20;61.70;;;;;;5096787;28;20459;-66
2023/06/13 03:00:07;;;;;;;6.37;3.00;;;16.20;61.80;;;;;;5096379;28;20449;-65
2023/06/13 03:02:36;;;;;;;4.30;3.97;;;16.20;63.30;;;;;;5096672;28;20545;-65
2023/06/13 03:05:05;;;;;;;7.23;3.80;;;16.10;63.80;;;;;;5096723;28;20489;-65
2023/06/13 03:07:32;;;;;;;6.13;3.47;;;16.10;64.40;;;;;;5096764;28;20835;-66
2023/06/13 03:10:00;;;;;;;4.30;3.50;;;16.10;65.40;;;;;;5096337;28;20457;-66
2023/06/13 03:12:27;;;;;;;4.00;3.60;;;16.10;66.40;;;;;;5096359;28;20477;-66
2023/06/13 03:14:54;;;;;;;3.83;3.53;;;16.10;67.70;;;;;;5095685;28;20463;-67
2023/06/13 03:17:21;;;;;;;4.77;3.30;;;16.00;68.80;;;;;;5095908;28;20473;-67
2023/06/13 03:19:48;;;;;;;3.97;3.60;;;16.00;69.80;;;;;;5096379;28;20453;-67
2023/06/13 03:22:15;;;;;;;5.07;3.37;;;16.00;70.70;;;;;;5096044;28;20985;-66
2023/06/13 03:24:42;;;;;;;3.50;3.20;;;16.00;70.30;;;;;;5095819;28;20457;-65
2023/06/13 03:27:12;;;;;;;4.97;3.47;;;15.90;64.00;;;;;;5096335;28;20540;-65
2023/06/13 03:29:40;;;;;;;3.47;3.17;;;15.90;1.00;;;;;;5096156;28;20555;-65
2023/06/13 03:32:07;;;;;;;5.60;4.07;;;15.90;1.00;;;;;;5096146;28;20780;-65
2023/06/13 03:34:37;;;;;;;4.70;3.50;;;15.80;1.00;;;;;;5096254;28;20778;-66
2023/06/13 03:37:05;;;;;;;4.53;3.53;;;15.80;1.00;;;;;;5095399;28;20490;-65
2023/06/13 03:39:32;;;;;;;5.70;3.60;;;15.80;1.00;;;;;;5096057;28;20452;-65
2023/06/13 03:41:59;;;;;;;7.27;3.90;;;15.80;1.00;;;;;;5095998;28;20514;-66
2023/06/13 03:44:27;;;;;;;4.23;3.80;;;15.80;1.00;;;;;;5095792;28;20453;-65
2023/06/13 03:46:55;;;;;;;4.53;3.97;;;15.70;1.00;;;;;;5096097;28;20793;-65
2023/06/13 03:49:22;;;;;;;4.57;3.50;;;15.70;1.00;;;;;;5096056;28;20453;-65
2023/06/13 03:51:49;;;;;;;5.27;3.40;;;15.70;1.00;;;;;;5095443;28;20514;-65
2023/06/13 03:54:16;;;;;;;4.00;3.60;;;15.70;1.00;;;;;;5095745;28;20453;-66
2023/06/13 03:56:43;;;;;;;6.80;4.07;;;15.60;1.00;;;;;;5095367;28;20477;-66
2023/06/13 03:59:10;;;;;;;3.87;3.50;;;15.70;1.00;;;;;;5095400;28;20552;-66
2023/06/13 04:01:40;;;;;;;6.93;4.10;;;15.70;1.00;;;;;;5095333;28;20480;-66
2023/06/13 04:04:07;;;;;;;9.50;3.53;;;15.70;1.00;;;;;;5095483;28;20437;-66
2023/06/13 04:06:34;;;;;;;5.03;4.00;;;15.70;1.00;;;;;;5095281;28;20459;-67
2023/06/13 04:09:04;;;;;;;4.83;3.83;;;15.70;1.00;;;;;;5095517;28;20464;-67
2023/06/13 04:11:31;;;;;;;5.07;3.90;;;15.70;1.00;;;;;;5095137;28;20497;-66
2023/06/13 04:13:57;;;;;;;8.00;4.00;;;15.70;1.00;;;;;;5095312;28;20441;-67
2023/06/13 04:16:24;;;;;;;5.23;4.10;;;15.70;1.00;;;;;;5095074;28;20517;-66
2023/06/13 04:18:54;;;;;;;7.07;3.67;;;15.70;1.00;;;;;;5095110;28;20504;-66
2023/06/13 04:21:25;;;;;;;6.57;4.97;;;15.60;1.00;;;;;;5095070;28;20460;-66
2023/06/13 04:23:52;;;;;;;7.60;3.97;;;15.60;1.00;;;;;;5095232;28;20735;-65
2023/06/13 04:26:20;;;;;;;5.23;4.40;;;15.60;1.00;;;;;;5094846;28;20450;-66
2023/06/13 04:28:47;;;;;;;4.13;3.73;;;15.60;1.00;;;;;;5094983;28;20453;-66
2023/06/13 04:31:16;;;;;;;5.23;4.47;;;15.70;1.00;;;;;;5094757;28;20457;-66
2023/06/13 04:33:44;;;;;;;5.87;4.50;;;15.70;1.00;;;;;;5094657;28;20457;-66
2023/06/13 04:36:13;;;;;;;5.50;3.80;;;15.80;1.00;;;;;;5095008;28;20481;-66
2023/06/13 04:38:43;;;;;;;4.80;4.30;;;15.80;1.00;;;;;;5094846;28;20845;-66
2023/06/13 04:41:10;;;;;;;6.13;3.90;;;15.90;1.00;;;;;;5094676;28;20499;-66
2023/06/13 04:43:38;;;;;;;6.00;4.70;;;15.90;1.00;;;;;;5094669;28;20484;-66
2023/06/13 04:46:05;;;;;;;5.77;3.53;;;16.00;1.00;;;;;;5094864;28;20830;-66
2023/06/13 04:48:32;;;;;;;5.27;4.07;;;16.00;1.00;;;;;;5094795;28;20465;-66
2023/06/13 04:50:59;;;;;;;7.33;4.63;;;16.10;1.00;;;;;;5094682;28;20559;-66
2023/06/13 04:53:29;;;;;;;6.77;4.40;;;16.20;1.00;;;;;;5094581;28;20453;-66
2023/06/13 04:55:57;;;;;;;5.20;4.40;;;16.20;1.00;;;;;;5094543;28;20477;-66
2023/06/13 04:58:24;;;;;;;8.37;3.83;;;16.30;1.00;;;;;;5094606;28;20787;-66
2023/06/13 05:00:51;;;;;;;4.93;4.47;;;16.30;1.00;;;;;;5094659;28;20765;-66
2023/06/13 05:03:19;;;;;;;6.57;4.50;;;16.40;1.00;;;;;;5094381;28;20548;-66
2023/06/13 05:05:46;;;;;;;4.60;4.00;;;16.40;1.00;;;;;;5094226;28;20982;-66
2023/06/13 05:08:19;;;;;;;5.93;4.50;;;16.40;1.00;;;;;;5094517;28;20460;-66
2023/06/13 05:10:47;;;;;;;7.70;4.60;;;16.40;1.00;;;;;;5094748;28;20752;-66
2023/06/13 05:13:14;;;;;;;5.77;4.80;;;16.40;1.00;;;;;;5094433;28;20481;-66
2023/06/13 05:15:42;;;;;;;5.30;4.80;;;16.40;1.00;;;;;;5093858;28;20918;-66
2023/06/13 05:18:12;;;;;;;6.90;4.70;;;16.40;1.00;;;;;;5094375;28;20548;-66
2023/06/13 05:20:39;;;;;;;5.27;4.30;;;16.40;1.00;;;;;;5094150;28;20510;-66
2023/06/13 05:23:07;;;;;;;9.87;4.67;;;16.40;1.00;;;;;;5094122;28;20453;-66
2023/06/13 05:25:34;;;;;;;9.17;5.57;;;16.50;1.00;;;;;;5094668;28;20454;-67
2023/06/13 05:28:03;;;;;;;7.90;4.47;;;16.50;1.00;;;;;;5093885;28;20569;-66
2023/06/13 05:30:30;;;;;;;5.60;4.43;;;16.50;1.00;;;;;;5093897;28;20902;-65
2023/06/13 05:32:57;;;;;;;5.20;4.70;;;16.50;1.00;;;;;;5094298;28;20789;-66
2023/06/13 05:35:24;;;;;;;9.80;5.07;;;16.50;1.00;;;;;;5093865;28;20457;-66
2023/06/13 05:37:51;;;;;;;7.77;4.73;;;16.50;1.00;;;;;;5095603;28;20572;-66
2023/06/13 05:40:19;;;;;;;5.00;4.57;;;16.60;1.00;;;;;;5097786;28;20467;-66
2023/06/13 05:42:46;;;;;;;5.20;4.30;;;16.60;1.00;;;;;;5097690;28;20463;-65
2023/06/13 05:45:14;;;;;;;5.47;4.53;;;16.70;1.00;;;;;;5098194;28;20499;-66
2023/06/13 05:47:41;;;;;;;6.70;5.60;;;16.80;1.00;;;;;;5098128;28;20452;-67
2023/06/13 05:50:08;;;;;;;9.27;4.93;;;16.80;1.00;;;;;;5098308;28;20833;-67
2023/06/13 05:52:35;;;;;;;5.40;4.40;;;16.90;1.00;;;;;;5097759;28;20937;-66
2023/06/13 05:55:04;;;;;;;8.60;4.80;;;16.90;1.00;;;;;;5097521;28;20552;-66
2023/06/13 05:57:40;;;;;;;11.77;4.30;;;16.90;1.00;;;;;;5097688;28;20483;-66
2023/06/13 06:00:11;;;;;;;5.50;5.00;;;17.00;1.00;;;;;;5098151;28;20452;-66
2023/06/13 06:02:40;;;;;;;5.90;4.80;;;17.10;1.00;;;;;;5097901;28;20448;-66
2023/06/13 06:05:08;;;;;;;7.03;4.60;;;17.10;1.00;;;;;;5097854;28;20468;-65
2023/06/13 06:07:36;;;;;;;33.23;26.30;;;17.20;1.00;;;;;;5097197;28;20453;-65
2023/06/13 06:10:03;;;;;;;57.07;42.37;;;17.20;1.00;;;;;;5097167;28;20453;-65
2023/06/13 06:12:30;;;;;;;12.57;8.20;;;17.30;1.00;;;;;;5096910;28;20568;-66
2023/06/13 06:14:57;;;;;;;9.07;4.90;;;17.40;1.00;;;;;;5097443;28;20464;-67
2023/06/13 06:17:24;;;;;;;5.40;4.87;;;17.40;1.00;;;;;;5097457;28;20588;-66
2023/06/13 06:19:53;;;;;;;8.90;4.57;;;17.50;1.00;;;;;;5097317;28;20823;-66
2023/06/13 06:22:20;;;;;;;5.10;4.60;;;17.50;1.00;;;;;;5096910;28;20540;-66
2023/06/13 06:24:47;;;;;;;5.83;4.33;;;17.50;1.00;;;;;;5096875;28;20453;-66
2023/06/13 06:27:14;;;;;;;8.47;6.00;;;17.50;1.00;;;;;;5097288;28;20532;-66
2023/06/13 06:29:42;;;;;;;4.90;4.30;;;17.50;1.00;;;;;;5096630;28;20527;-66
2023/06/13 06:32:10;;;;;;;9.33;4.60;;;17.60;1.00;;;;;;5096694;28;20522;-66
2023/06/13 06:34:37;;;;;;;14.10;5.70;;;17.60;1.00;;;;;;5096745;28;20782;-66
2023/06/13 06:37:07;;;;;;;10.73;5.13;;;17.70;1.00;;;;;;5097200;28;20799;-67
2023/06/13 06:39:35;;;;;;;16.47;5.87;;;17.70;1.00;;;;;;5096607;28;20441;-66
2023/06/13 06:42:02;;;;;;;7.30;4.60;;;17.80;1.00;;;;;;5096277;28;20457;-66
2023/06/13 06:44:29;;;;;;;12.27;5.63;;;17.80;1.00;;;;;;5097050;28;20780;-65
2023/06/13 06:46:56;;;;;;;7.47;5.10;;;17.80;1.00;;;;;;5097027;28;20526;-66
2023/06/13 06:49:22;;;;;;;25.50;6.53;;;17.90;1.00;;;;;;5095043;28;20461;-65
2023/06/13 06:51:49;;;;;;;12.80;4.93;;;17.90;1.00;;;;;;5095991;28;20544;-66
2023/06/13 06:54:17;;;;;;;5.13;4.20;;;17.90;1.00;;;;;;5096811;28;20755;-66
2023/06/13 06:56:45;;;;;;;8.90;4.70;;;17.90;1.00;;;;;;5096239;28;20569;-66
2023/06/13 06:59:11;;;;;;;8.03;4.30;;;17.90;1.00;;;;;;5096072;28;20461;-66
2023/06/13 07:01:38;;;;;;;6.70;4.50;;;17.90;1.00;;;;;;5096234;28;20492;-66
2023/06/13 07:04:05;;;;;;;6.10;5.13;;;18.00;1.00;;;;;;5095971;28;20794;-66
2023/06/13 07:06:32;;;;;;;10.93;4.07;;;18.00;1.00;;;;;;5096959;28;20463;-66
2023/06/13 07:08:59;;;;;;;7.17;5.20;;;18.10;1.00;;;;;;5096089;28;20453;-67
2023/06/13 07:11:27;;;;;;;7.30;4.17;;;18.10;1.00;;;;;;5095965;28;20616;-66
2023/06/13 07:13:54;;;;;;;5.40;4.00;;;18.10;1.00;;;;;;5096104;28;20819;-65
2023/06/13 07:16:21;;;;;;;6.90;4.30;;;18.20;1.00;;;;;;5095823;28;20468;-65
2023/06/13 07:18:48;;;;;;;4.87;4.37;;;18.30;1.00;;;;;;5096004;28;20464;-66
2023/06/13 07:21:15;;;;;;;4.90;3.90;;;18.40;1.00;;;;;;5095991;28;20529;-65
2023/06/13 07:23:41;;;;;;;6.40;4.60;;;18.40;1.00;;;;;;5096642;28;20938;-66
2023/06/13 07:26:08;;;;;;;7.03;4.60;;;18.50;1.00;;;;;;5096018;28;20453;-66
2023/06/13 07:28:36;;;;;;;6.13;4.23;;;18.60;1.00;;;;;;5095977;28;20464;-66
2023/06/13 07:31:03;;;;;;;9.70;4.20;;;18.60;1.00;;;;;;5095897;28;20548;-66
2023/06/13 07:33:30;;;;;;;3.83;3.50;;;18.70;1.00;;;;;;5095929;28;20468;-67
2023/06/13 07:35:57;;;;;;;6.67;3.60;;;18.80;1.00;;;;;;5096065;28;20480;-67
2023/06/13 07:38:25;;;;;;;5.47;4.37;;;18.90;1.00;;;;;;5095390;28;20524;-66
2023/06/13 07:40:52;;;;;;;9.30;4.30;;;19.00;1.00;;;;;;5095694;28;20943;-67
2023/06/13 07:43:19;;;;;;;6.73;4.03;;;19.20;1.00;;;;;;5095491;28;20894;-67
2023/06/13 07:45:47;;;;;;;18.87;5.20;;;19.30;1.00;;;;;;5095298;28;20552;-65
2023/06/13 07:48:15;;;;;;;10.97;4.27;;;19.40;1.00;;;;;;5095614;28;20789;-67
2023/06/13 07:50:42;;;;;;;10.47;3.90;;;19.50;1.00;;;;;;5095399;28;20605;-66
2023/06/13 07:53:09;;;;;;;7.93;4.73;;;19.70;1.00;;;;;;5095369;28;20757;-66
2023/06/13 07:55:37;;;;;;;5.53;4.00;;;19.70;1.00;;;;;;5095382;28;20917;-66
2023/06/13 07:58:04;;;;;;;9.80;4.50;;;19.70;1.00;;;;;;5095529;28;20485;-66
2023/06/13 08:00:30;;;;;;;9.13;4.10;;;19.80;1.00;;;;;;5095071;28;20449;-67
2023/06/13 08:02:59;;;;;;;8.50;4.20;;;19.80;1.00;;;;;;5095181;28;20544;-66
2023/06/13 08:05:26;;;;;;;7.87;4.37;;;19.80;1.00;;;;;;5095464;28;20457;-66
2023/06/13 08:07:53;;;;;;;8.33;4.37;;;19.80;1.00;;;;;;5095070;28;20469;-67
2023/06/13 08:10:20;;;;;;;7.87;4.40;;;19.80;1.00;;;;;;5095471;28;20545;-66
2023/06/13 08:12:48;;;;;;;11.77;9.30;;;19.80;1.00;;;;;;5094790;28;20480;-66
2023/06/13 08:15:15;;;;;;;7.33;4.93;;;19.80;1.00;;;;;;5095121;28;20464;-66
2023/06/13 08:17:42;;;;;;;9.40;4.10;;;19.80;1.00;;;;;;5095130;28;20866;-65
2023/06/13 08:20:10;;;;;;;6.13;4.07;;;19.80;1.00;;;;;;5095304;28;20472;-65
2023/06/13 08:22:39;;;;;;;7.03;4.30;;;19.80;1.00;;;;;;5094727;28;20926;-66
2023/06/13 08:25:07;;;;;;;4.37;3.73;;;19.80;1.00;;;;;;5094901;28;20454;-67
2023/06/13 08:27:36;;;;;;;6.50;4.00;;;19.80;1.00;;;;;;5094453;28;20457;-66
2023/06/13 08:30:04;;;;;;;4.87;3.80;;;19.80;1.00;;;;;;5094782;28;20495;-66
2023/06/13 08:32:31;;;;;;;7.33;3.60;;;19.80;1.00;;;;;;5095202;28;20543;-66
2023/06/13 08:34:59;;;;;;;3.70;3.40;;;19.90;1.00;;;;;;5095073;28;20482;-66
2023/06/13 08:37:27;;;;;;;6.50;3.90;;;19.90;1.00;;;;;;5094825;28;20758;-67
2023/06/13 08:39:54;;;;;;;6.03;4.43;;;20.10;1.00;;;;;;5094592;28;20464;-64
2023/06/13 08:42:21;;;;;;;12.60;4.50;;;20.20;1.00;;;;;;5094557;28;20464;-65
2023/06/13 08:44:49;;;;;;;10.60;7.00;;;20.20;1.00;;;;;;5094708;28;20453;-66
2023/06/13 08:47:18;;;;;;;4.40;4.00;;;20.30;1.00;;;;;;5094481;28;20459;-64
2023/06/13 08:49:48;;;;;;;6.10;3.60;;;20.30;1.00;;;;;;5094361;28;20454;-66
2023/06/13 08:52:17;;;;;;;9.53;3.90;;;20.30;1.00;;;;;;5094442;28;20532;-66
2023/06/13 08:54:50;;;;;;;4.17;3.40;;;20.40;1.00;;;;;;5094218;28;20452;-65
2023/06/13 08:57:18;;;;;;;6.40;4.10;;;20.40;1.00;;;;;;5094668;28;20462;-66
2023/06/13 08:59:48;;;;;;;8.47;4.20;;;20.50;1.00;;;;;;5094437;28;20453;-66
2023/06/13 09:02:19;;;;;;;5.83;4.27;;;20.60;1.00;;;;;;5094210;28;20793;-65
2023/06/13 09:04:47;;;;;;;4.63;3.50;;;20.70;1.00;;;;;;5094388;28;20449;-66
2023/06/13 09:07:16;;;;;;;6.80;3.57;;;20.90;1.00;;;;;;5093739;28;20449;-66
2023/06/13 09:09:45;;;;;;;5.53;3.90;;;21.00;1.00;;;;;;5093553;28;20449;-66
2023/06/13 09:12:14;;;;;;;7.43;3.60;;;21.10;1.00;;;;;;5092958;28;20477;-67
2023/06/13 09:14:41;;;;;;;8.13;3.73;;;21.20;1.00;;;;;;5093978;28;20918;-66
2023/06/13 09:17:08;;;;;;;11.63;3.80;;;21.20;1.00;;;;;;5093782;28;20922;-66
2023/06/13 09:19:35;;;;;;;4.80;3.17;;;21.30;1.00;;;;;;5094391;28;20464;-66
2023/06/13 09:22:02;;;;;;;5.53;3.70;;;21.40;1.00;;;;;;5094261;28;20820;-65
2023/06/13 09:24:31;;;;;;;5.20;3.10;;;21.50;1.00;;;;;;5094479;28;20475;-66
2023/06/13 09:27:02;;;;;;;10.90;7.00;;;21.60;1.00;;;;;;5094583;28;20486;-65
2023/06/13 09:29:33;;;;;;;11.00;7.70;;;21.70;1.00;;;;;;5094306;28;20438;-67
2023/06/13 09:32:00;;;;;;;7.30;3.47;;;21.80;1.00;;;;;;5093787;28;20452;-66
2023/06/13 09:34:28;;;;;;;5.17;3.10;;;22.00;1.00;;;;;;5094241;28;20464;-67
2023/06/13 09:36:57;;;;;;;4.73;3.43;;;22.10;1.00;;;;;;5094304;28;20453;-66
2023/06/13 09:39:24;;;;;;;6.40;3.10;;;22.10;1.00;;;;;;5093978;28;20490;-66
2023/06/13 09:41:54;;;;;;;3.80;3.37;;;22.20;1.00;;;;;;5093926;28;20928;-67
2023/06/13 09:44:23;;;;;;;3.67;3.37;;;22.20;1.00;;;;;;5094374;28;20507;-65
2023/06/13 09:46:51;;;;;;;5.37;3.00;;;22.30;1.00;;;;;;5094012;28;20543;-66
2023/06/13 09:49:18;;;;;;;5.40;3.13;;;22.40;1.00;;;;;;5093926;28;20481;-66
2023/06/13 09:51:45;;;;;;;7.23;3.80;;;22.40;1.00;;;;;;5093724;28;20518;-67
2023/06/13 09:54:12;;;;;;;3.27;2.93;;;22.50;1.00;;;;;;5093792;28;20925;-66
2023/06/13 09:56:42;;;;;;;4.80;3.10;;;22.60;1.00;;;;;;5093397;28;20973;-66
2023/06/13 09:59:09;;;;;;;11.13;3.30;;;22.80;1.00;;;;;;5093419;28;20481;-67
2023/06/13 10:01:38;;;;;;;10.77;3.90;;;22.90;1.00;;;;;;5093524;28;20449;-65
2023/06/13 10:04:06;;;;;;;7.20;3.67;;;23.10;1.00;;;;;;5093619;28;20457;-66
2023/06/13 10:06:33;;;;;;;6.00;3.00;;;23.20;1.00;;;;;;5093474;28;20493;-65
2023/06/13 10:08:59;;;;;;;7.47;3.53;;;23.30;1.00;;;;;;5093218;28;20460;-66
2023/06/13 10:11:35;;;;;;;7.30;4.10;;;23.30;1.00;;;;;;5093636;28;20553;-66
2023/06/13 10:14:08;;;;;;;4.90;3.47;;;23.30;1.00;;;;;;5093293;28;20445;-66
2023/06/13 10:16:38;;;;;;;6.13;3.67;;;23.40;1.00;;;;;;5093745;28;20824;-67
2023/06/13 10:19:06;;;;;;;19.13;5.20;;;23.50;1.00;;;;;;5093303;28;20477;-65
2023/06/13 10:21:34;;;;;;;6.83;3.33;;;23.50;1.00;;;;;;5093532;28;20866;-66
2023/06/13 10:24:02;;;;;;;7.67;3.40;;;23.50;1.00;;;;;;5095412;28;20500;-66
2023/06/13 10:26:36;;;;;;;3.73;2.90;;;23.50;1.00;;;;;;5097129;28;20789;-67
2023/06/13 10:29:25;;;;;;;6.77;3.17;;;23.50;1.00;;;;;;5096712;28;20874;-66
2023/06/13 10:32:03;;;;;;;9.23;3.27;;;23.50;1.00;;;;;;5096817;28;20446;-65
2023/06/13 10:34:55;;;;;;;5.30;2.93;;;23.60;1.00;;;;;;5096586;28;20438;-66
2023/06/13 10:37:47;;;;;;;6.43;3.00;;;23.50;1.00;;;;;;5096788;28;20445;-66
2023/06/13 10:40:53;;;;;;;4.37;3.00;;;23.50;1.00;;;;;;5094219;28;20549;-65
2023/06/13 10:43:25;;;;;;;5.60;3.00;;;23.40;1.00;;;;;;5037554;28;20455;-66
2023/06/13 10:45:54;;;;;;;5.10;3.20;;;23.30;1.00;;;;;;5096647;28;20443;-66
2023/06/13 10:48:32;;;;;;;5.63;3.30;;;23.40;1.00;;;;;;5096789;28;20780;-66
2023/06/13 10:50:59;;;;;;;5.60;3.10;;;23.40;1.00;;;;;;5096750;28;20766;-66
2023/06/13 10:53:28;;;;;;;7.67;3.83;;;23.40;1.00;;;;;;5096786;28;20555;-66
2023/06/13 10:56:00;;;;;;;6.43;3.23;;;23.40;1.00;;;;;;5096847;28;20464;-66
2023/06/13 10:58:28;;;;;;;8.10;3.43;;;23.40;1.00;;;;;;5096854;28;20461;-66
2023/06/13 11:00:55;;;;;;;9.73;2.80;;;23.40;1.00;;;;;;5096952;28;20453;-66
2023/06/13 11:03:31;;;;;;;5.53;3.03;;;23.30;1.00;;;;;;5096779;28;20489;-66
2023/06/13 11:06:06;;;;;;;8.90;3.00;;;23.30;1.00;;;;;;5096329;28;20448;-66
2023/06/13 11:08:33;;;;;;;9.47;3.33;;;23.30;1.00;;;;;;5095687;28;20433;-66
2023/06/13 11:11:03;;;;;;;6.33;3.00;;;23.30;1.00;;;;;;5096177;28;20464;-66
2023/06/13 11:13:33;;;;;;;4.93;3.13;;;23.30;1.00;;;;;;5095767;28;20571;-65
2023/06/13 11:16:19;;;;;;;4.93;2.73;;;23.30;1.00;;;;;;5096179;28;20774;-66
2023/06/13 11:18:48;;;;;;;4.13;2.97;;;23.40;1.00;;;;;;5095634;28;20468;-66
2023/06/13 11:21:15;;;;;;;7.67;2.63;;;23.40;1.00;;;;;;5096018;28;20480;-66
2023/06/13 11:23:49;;;;;;;3.60;3.00;;;23.40;1.00;;;;;;5095639;28;20788;-66
2023/06/13 11:26:20;;;;;;;5.53;3.10;;;23.70;1.00;;;;;;5095686;28;20449;-67
2023/06/13 11:28:48;;;;;;;8.50;2.93;;;24.20;1.00;;;;;;5095570;28;20438;-65
2023/06/13 11:31:17;;;;;;;4.30;2.80;;;24.70;1.00;;;;;;5095511;28;20525;-65
2023/06/13 11:33:48;;;;;;;7.43;2.70;;;25.10;1.00;;;;;;5095513;28;20463;-65
2023/06/13 11:36:16;;;;;;;5.00;2.70;;;25.70;1.00;;;;;;5094772;28;20438;-65
2023/06/13 11:38:47;;;;;;;3.53;2.90;;;26.60;1.00;;;;;;5095673;28;20500;-66
2023/06/13 11:41:15;;;;;;;5.30;2.57;;;27.30;1.00;;;;;;5095366;28;20437;-66
2023/06/13 11:43:43;;;;;;;2.50;2.23;;;28.10;1.00;;;;;;5095712;28;20468;-66
2023/06/13 11:46:13;;;;;;;5.07;2.17;;;28.80;1.00;;;;;;5095811;28;20453;-66
2023/06/13 11:48:40;;;;;;;5.10;2.40;;;29.40;1.00;;;;;;5095959;28;20449;-66
2023/06/13 11:51:13;;;;;;;8.23;3.10;;;30.00;1.00;;;;;;5095494;28;20616;-65
2023/06/13 11:53:50;;;;;;;10.53;2.33;;;30.70;1.00;;;;;;5095924;28;20449;-66
2023/06/13 11:56:18;;;;;;;3.23;2.40;;;31.40;1.00;;;;;;5095483;28;20514;-66
2023/06/13 11:58:45;;;;;;;6.13;2.90;;;31.90;1.00;;;;;;5095408;28;20485;-66
2023/06/13 12:01:15;;;;;;;3.60;2.57;;;32.30;1.00;;;;;;5095352;28;20461;-66
2023/06/13 12:03:43;;;;;;;5.40;2.63;;;32.40;1.00;;;;;;5095071;28;20955;-66
2023/06/13 12:06:12;;;;;;;3.83;3.07;;;32.70;1.00;;;;;;5095511;28;20548;-66
2023/06/13 12:08:41;;;;;;;3.30;2.17;;;32.90;1.00;;;;;;5095015;28;20449;-66
2023/06/13 12:11:11;;;;;;;4.00;2.90;;;32.70;1.00;;;;;;5095069;28;20801;-66
2023/06/13 12:13:38;;;;;;;4.30;2.00;;;32.40;1.00;;;;;;5095112;28;20505;-66
2023/06/13 12:16:06;;;;;;;4.77;2.53;;;32.30;1.00;;;;;;5095333;28;20445;-66
2023/06/13 12:18:33;;;;;;;7.77;2.63;;;32.40;1.00;;;;;;5095274;28;20481;-66
2023/06/13 12:21:00;;;;;;;5.03;2.43;;;32.50;1.00;;;;;;5095305;28;20453;-66
2023/06/13 12:23:29;;;;;;;4.20;3.10;;;32.70;1.00;;;;;;5095371;28;20518;-66
2023/06/13 12:25:57;;;;;;;3.70;2.80;;;32.70;1.00;;;;;;5094809;28;20453;-66
2023/06/13 12:28:25;;;;;;;4.60;2.73;;;32.40;1.00;;;;;;5094646;28;20453;-66
2023/06/13 12:30:57;;;;;;;3.20;2.87;;;32.20;1.00;;;;;;5095581;28;20535;-66
2023/06/13 12:33:35;;;;;;;3.23;2.70;;;32.00;1.00;;;;;;5095046;28;20457;-66
2023/06/13 12:36:05;;;;;;;3.60;2.87;;;31.30;1.00;;;;;;5095487;28;20464;-66
2023/06/13 12:38:34;;;;;;;3.00;2.50;;;31.20;1.00;;;;;;5094595;28;21035;-66
2023/06/13 12:41:01;;;;;;;3.47;3.17;;;31.70;1.00;;;;;;5094706;28;20453;-66
2023/06/13 12:43:29;;;;;;;7.93;2.90;;;32.10;1.00;;;;;;5094973;28;20434;-66
2023/06/13 12:45:59;;;;;;;4.70;2.93;;;32.30;1.00;;;;;;5094831;28;20449;-66
2023/06/13 12:48:26;;;;;;;2.93;2.47;;;32.20;1.00;;;;;;5093892;28;20919;-66
2023/06/13 12:50:54;;;;;;;6.33;2.63;;;31.70;1.00;;;;;;5094709;28;20452;-66
2023/06/13 12:53:23;;;;;;;3.20;2.70;;;31.40;1.00;;;;;;5094752;28;20560;-65
2023/06/13 12:55:53;;;;;;;9.50;2.77;;;31.40;1.00;;;;;;5095077;28;20453;-65
2023/06/13 12:58:33;;;;;;;2.80;2.60;;;31.80;1.00;;;;;;5094623;28;20485;-65
2023/06/13 13:01:01;;;;;;;3.73;2.80;;;32.00;1.00;;;;;;5094766;28;20473;-66